sensor_id;sensor_type;location;lat;lon;timestamp;P1;durP1;ratioP1;P2;durP2;ratioP2
23517;SDS011;11935;50.878;4.392;2023-03-16T00:02:14;4.15;;;1.75;;
23517;SDS011;11935;50.878;4.392;2023-03-16T00:04:40;4.25;;;2.08;;
23517;SDS011;11935;50.878;4.392;2023-03-16T00:07:07;6.55;;;2.58;;
23517;SDS011;11935;50.878;4.392;2023-03-16T00:09:33;4.40;;;2.35;;
23517;SDS011;11935;50.878;4.392;2023-03-16T00:12:00;3.15;;;1.77;;
23517;SDS011;11935;50.878;4.392;2023-03-16T00:14:27;4.13;;;2.22;;
23517;SDS011;11935;50.878;4.392;2023-03-16T00:16:54;6.88;;;2.70;;
23517;SDS011;11935;50.878;4.392;2023-03-16T00:19:20;1.67;;;1.08;;
23517;SDS011;11935;50.878;4.392;2023-03-16T00:21:49;3.20;;;1.58;;
23517;SDS011;11935;50.878;4.392;2023-03-16T00:24:16;10.27;;;2.08;;
23517;SDS011;11935;50.878;4.392;2023-03-16T00:26:43;7.28;;;2.17;;
23517;SDS011;11935;50.878;4.392;2023-03-16T00:29:09;5.47;;;1.95;;
23517;SDS011;11935;50.878;4.392;2023-03-16T00:31:36;9.52;;;1.75;;
23517;SDS011;11935;50.878;4.392;2023-03-16T00:34:02;8.35;;;3.63;;
23517;SDS011;11935;50.878;4.392;2023-03-16T00:36:28;6.95;;;2.03;;
23517;SDS011;11935;50.878;4.392;2023-03-16T00:38:57;5.93;;;2.40;;
23517;SDS011;11935;50.878;4.392;2023-03-16T00:41:23;6.43;;;2.20;;
23517;SDS011;11935;50.878;4.392;2023-03-16T00:43:49;1.50;;;1.02;;
23517;SDS011;11935;50.878;4.392;2023-03-16T00:46:17;2.38;;;1.27;;
23517;SDS011;11935;50.878;4.392;2023-03-16T00:48:44;3.05;;;2.30;;
23517;SDS011;11935;50.878;4.392;2023-03-16T00:51:12;2.60;;;1.50;;
23517;SDS011;11935;50.878;4.392;2023-03-16T00:53:40;4.95;;;1.98;;
23517;SDS011;11935;50.878;4.392;2023-03-16T00:56:06;5.03;;;1.88;;
23517;SDS011;11935;50.878;4.392;2023-03-16T00:58:33;5.45;;;2.45;;
23517;SDS011;11935;50.878;4.392;2023-03-16T01:01:07;2.70;;;1.50;;
23517;SDS011;11935;50.878;4.392;2023-03-16T01:03:34;6.03;;;2.00;;
23517;SDS011;11935;50.878;4.392;2023-03-16T01:06:10;4.60;;;1.88;;
23517;SDS011;11935;50.878;4.392;2023-03-16T01:08:37;6.38;;;2.10;;
23517;SDS011;11935;50.878;4.392;2023-03-16T01:11:07;5.82;;;2.25;;
23517;SDS011;11935;50.878;4.392;2023-03-16T01:13:34;4.28;;;1.77;;
23517;SDS011;11935;50.878;4.392;2023-03-16T01:16:01;6.22;;;1.98;;
23517;SDS011;11935;50.878;4.392;2023-03-16T01:18:28;7.28;;;1.95;;
23517;SDS011;11935;50.878;4.392;2023-03-16T01:20:58;3.50;;;2.10;;
23517;SDS011;11935;50.878;4.392;2023-03-16T01:23:24;6.82;;;2.10;;
23517;SDS011;11935;50.878;4.392;2023-03-16T01:25:50;6.70;;;2.05;;
23517;SDS011;11935;50.878;4.392;2023-03-16T01:28:19;6.05;;;1.77;;
23517;SDS011;11935;50.878;4.392;2023-03-16T01:30:48;3.00;;;1.88;;
23517;SDS011;11935;50.878;4.392;2023-03-16T01:33:18;4.57;;;1.88;;
23517;SDS011;11935;50.878;4.392;2023-03-16T01:35:50;2.47;;;1.52;;
23517;SDS011;11935;50.878;4.392;2023-03-16T01:38:16;4.88;;;2.05;;
23517;SDS011;11935;50.878;4.392;2023-03-16T01:40:42;2.83;;;1.73;;
23517;SDS011;11935;50.878;4.392;2023-03-16T01:43:09;5.32;;;1.95;;
23517;SDS011;11935;50.878;4.392;2023-03-16T01:46:07;5.82;;;2.00;;
23517;SDS011;11935;50.878;4.392;2023-03-16T01:48:36;5.63;;;2.08;;
23517;SDS011;11935;50.878;4.392;2023-03-16T01:51:04;3.80;;;1.80;;
23517;SDS011;11935;50.878;4.392;2023-03-16T01:53:31;4.70;;;2.10;;
23517;SDS011;11935;50.878;4.392;2023-03-16T01:55:59;4.20;;;1.88;;
23517;SDS011;11935;50.878;4.392;2023-03-16T01:58:26;3.83;;;1.70;;
23517;SDS011;11935;50.878;4.392;2023-03-16T02:00:53;6.28;;;2.22;;
23517;SDS011;11935;50.878;4.392;2023-03-16T02:03:19;6.50;;;2.15;;
23517;SDS011;11935;50.878;4.392;2023-03-16T02:08:30;3.72;;;1.90;;
23517;SDS011;11935;50.878;4.392;2023-03-16T02:10:56;2.72;;;1.45;;
23517;SDS011;11935;50.878;4.392;2023-03-16T02:13:23;6.10;;;1.73;;
23517;SDS011;11935;50.878;4.392;2023-03-16T02:15:50;3.92;;;1.75;;
23517;SDS011;11935;50.878;4.392;2023-03-16T02:18:17;7.57;;;2.08;;
23517;SDS011;11935;50.878;4.392;2023-03-16T02:23:14;4.38;;;1.92;;
23517;SDS011;11935;50.878;4.392;2023-03-16T02:30:55;4.88;;;1.77;;
23517;SDS011;11935;50.878;4.392;2023-03-16T02:33:22;4.75;;;1.83;;
23517;SDS011;11935;50.878;4.392;2023-03-16T02:35:49;3.80;;;1.65;;
23517;SDS011;11935;50.878;4.392;2023-03-16T02:38:15;2.50;;;1.50;;
23517;SDS011;11935;50.878;4.392;2023-03-16T02:40:41;5.20;;;1.25;;
23517;SDS011;11935;50.878;4.392;2023-03-16T02:43:14;5.55;;;1.63;;
23517;SDS011;11935;50.878;4.392;2023-03-16T02:45:51;2.33;;;1.73;;
23517;SDS011;11935;50.878;4.392;2023-03-16T02:48:22;2.67;;;1.45;;
23517;SDS011;11935;50.878;4.392;2023-03-16T02:50:52;4.53;;;1.48;;
23517;SDS011;11935;50.878;4.392;2023-03-16T02:53:19;1.70;;;1.02;;
23517;SDS011;11935;50.878;4.392;2023-03-16T02:55:45;5.85;;;1.50;;
23517;SDS011;11935;50.878;4.392;2023-03-16T02:58:12;4.10;;;1.65;;
23517;SDS011;11935;50.878;4.392;2023-03-16T03:00:38;5.18;;;1.58;;
23517;SDS011;11935;50.878;4.392;2023-03-16T03:03:05;5.90;;;1.90;;
23517;SDS011;11935;50.878;4.392;2023-03-16T03:05:34;6.45;;;1.92;;
23517;SDS011;11935;50.878;4.392;2023-03-16T03:08:00;3.85;;;1.73;;
23517;SDS011;11935;50.878;4.392;2023-03-16T03:10:27;6.07;;;2.22;;
23517;SDS011;11935;50.878;4.392;2023-03-16T03:12:53;4.95;;;1.83;;
23517;SDS011;11935;50.878;4.392;2023-03-16T03:15:19;4.40;;;2.10;;
23517;SDS011;11935;50.878;4.392;2023-03-16T03:17:45;3.85;;;1.52;;
23517;SDS011;11935;50.878;4.392;2023-03-16T03:20:12;3.58;;;1.80;;
23517;SDS011;11935;50.878;4.392;2023-03-16T03:22:41;4.70;;;1.55;;
23517;SDS011;11935;50.878;4.392;2023-03-16T03:25:09;8.18;;;1.60;;
23517;SDS011;11935;50.878;4.392;2023-03-16T03:27:35;7.03;;;2.08;;
23517;SDS011;11935;50.878;4.392;2023-03-16T03:30:02;5.95;;;1.70;;
23517;SDS011;11935;50.878;4.392;2023-03-16T03:32:28;6.00;;;1.73;;
23517;SDS011;11935;50.878;4.392;2023-03-16T03:34:54;7.90;;;1.98;;
23517;SDS011;11935;50.878;4.392;2023-03-16T03:37:20;8.40;;;1.48;;
23517;SDS011;11935;50.878;4.392;2023-03-16T03:39:46;5.65;;;1.30;;
23517;SDS011;11935;50.878;4.392;2023-03-16T03:42:12;3.55;;;1.45;;
23517;SDS011;11935;50.878;4.392;2023-03-16T03:44:39;5.50;;;1.85;;
23517;SDS011;11935;50.878;4.392;2023-03-16T03:47:05;3.28;;;1.60;;
23517;SDS011;11935;50.878;4.392;2023-03-16T03:49:31;2.55;;;1.42;;
23517;SDS011;11935;50.878;4.392;2023-03-16T03:51:57;3.10;;;1.30;;
23517;SDS011;11935;50.878;4.392;2023-03-16T03:54:24;4.40;;;1.33;;
23517;SDS011;11935;50.878;4.392;2023-03-16T03:56:50;3.40;;;1.30;;
23517;SDS011;11935;50.878;4.392;2023-03-16T03:59:16;3.75;;;1.30;;
23517;SDS011;11935;50.878;4.392;2023-03-16T04:01:43;5.90;;;1.63;;
23517;SDS011;11935;50.878;4.392;2023-03-16T04:04:09;5.18;;;1.42;;
23517;SDS011;11935;50.878;4.392;2023-03-16T04:06:35;5.90;;;1.75;;
23517;SDS011;11935;50.878;4.392;2023-03-16T04:09:01;4.25;;;1.40;;
23517;SDS011;11935;50.878;4.392;2023-03-16T04:11:27;6.78;;;1.50;;
23517;SDS011;11935;50.878;4.392;2023-03-16T04:13:53;3.50;;;1.30;;
23517;SDS011;11935;50.878;4.392;2023-03-16T04:16:19;2.55;;;1.13;;
23517;SDS011;11935;50.878;4.392;2023-03-16T04:18:46;11.68;;;4.53;;
23517;SDS011;11935;50.878;4.392;2023-03-16T04:21:15;6.20;;;1.65;;
23517;SDS011;11935;50.878;4.392;2023-03-16T04:23:42;2.53;;;1.17;;
23517;SDS011;11935;50.878;4.392;2023-03-16T04:26:09;3.78;;;1.30;;
23517;SDS011;11935;50.878;4.392;2023-03-16T04:28:35;3.22;;;1.23;;
23517;SDS011;11935;50.878;4.392;2023-03-16T04:31:02;3.53;;;1.17;;
23517;SDS011;11935;50.878;4.392;2023-03-16T04:33:29;2.72;;;1.27;;
23517;SDS011;11935;50.878;4.392;2023-03-16T04:35:56;4.07;;;1.35;;
23517;SDS011;11935;50.878;4.392;2023-03-16T04:38:22;3.88;;;1.30;;
23517;SDS011;11935;50.878;4.392;2023-03-16T04:40:49;2.95;;;1.30;;
23517;SDS011;11935;50.878;4.392;2023-03-16T04:43:15;5.22;;;1.67;;
23517;SDS011;11935;50.878;4.392;2023-03-16T04:45:41;4.32;;;1.48;;
23517;SDS011;11935;50.878;4.392;2023-03-16T04:48:07;5.22;;;1.40;;
23517;SDS011;11935;50.878;4.392;2023-03-16T04:50:34;8.88;;;1.17;;
23517;SDS011;11935;50.878;4.392;2023-03-16T04:53:00;7.22;;;2.65;;
23517;SDS011;11935;50.878;4.392;2023-03-16T04:55:26;2.28;;;1.10;;
23517;SDS011;11935;50.878;4.392;2023-03-16T04:57:52;5.40;;;1.60;;
23517;SDS011;11935;50.878;4.392;2023-03-16T05:00:18;2.13;;;1.40;;
23517;SDS011;11935;50.878;4.392;2023-03-16T05:02:45;7.63;;;1.15;;
23517;SDS011;11935;50.878;4.392;2023-03-16T05:05:12;5.60;;;1.23;;
23517;SDS011;11935;50.878;4.392;2023-03-16T05:07:39;4.32;;;1.50;;
23517;SDS011;11935;50.878;4.392;2023-03-16T05:10:06;2.25;;;1.30;;
23517;SDS011;11935;50.878;4.392;2023-03-16T05:12:32;3.17;;;1.48;;
23517;SDS011;11935;50.878;4.392;2023-03-16T05:14:58;6.15;;;1.30;;
23517;SDS011;11935;50.878;4.392;2023-03-16T05:17:25;6.30;;;1.40;;
23517;SDS011;11935;50.878;4.392;2023-03-16T05:19:51;5.80;;;1.70;;
23517;SDS011;11935;50.878;4.392;2023-03-16T05:22:17;7.60;;;1.45;;
23517;SDS011;11935;50.878;4.392;2023-03-16T05:24:44;4.28;;;1.33;;
23517;SDS011;11935;50.878;4.392;2023-03-16T05:27:10;5.65;;;1.40;;
23517;SDS011;11935;50.878;4.392;2023-03-16T05:29:36;4.13;;;0.98;;
23517;SDS011;11935;50.878;4.392;2023-03-16T05:32:02;3.25;;;1.52;;
23517;SDS011;11935;50.878;4.392;2023-03-16T05:34:28;5.72;;;1.50;;
23517;SDS011;11935;50.878;4.392;2023-03-16T05:36:55;4.40;;;2.03;;
23517;SDS011;11935;50.878;4.392;2023-03-16T05:39:22;3.67;;;1.08;;
23517;SDS011;11935;50.878;4.392;2023-03-16T05:41:48;6.15;;;1.42;;
23517;SDS011;11935;50.878;4.392;2023-03-16T05:44:14;2.03;;;1.27;;
23517;SDS011;11935;50.878;4.392;2023-03-16T05:46:41;3.58;;;1.67;;
23517;SDS011;11935;50.878;4.392;2023-03-16T05:49:09;5.38;;;1.45;;
23517;SDS011;11935;50.878;4.392;2023-03-16T05:51:37;4.55;;;1.33;;
23517;SDS011;11935;50.878;4.392;2023-03-16T05:54:03;2.42;;;1.00;;
23517;SDS011;11935;50.878;4.392;2023-03-16T05:56:29;4.55;;;1.17;;
23517;SDS011;11935;50.878;4.392;2023-03-16T05:58:55;3.08;;;1.25;;
23517;SDS011;11935;50.878;4.392;2023-03-16T06:01:21;7.82;;;1.55;;
23517;SDS011;11935;50.878;4.392;2023-03-16T06:03:48;2.67;;;1.05;;
23517;SDS011;11935;50.878;4.392;2023-03-16T06:06:15;6.90;;;1.45;;
23517;SDS011;11935;50.878;4.392;2023-03-16T06:08:42;1.45;;;0.90;;
23517;SDS011;11935;50.878;4.392;2023-03-16T06:11:08;5.72;;;1.17;;
23517;SDS011;11935;50.878;4.392;2023-03-16T06:13:35;6.47;;;1.30;;
23517;SDS011;11935;50.878;4.392;2023-03-16T06:16:01;2.17;;;1.38;;
23517;SDS011;11935;50.878;4.392;2023-03-16T06:18:28;4.75;;;1.30;;
23517;SDS011;11935;50.878;4.392;2023-03-16T06:20:54;3.28;;;1.10;;
23517;SDS011;11935;50.878;4.392;2023-03-16T06:23:20;1.88;;;0.85;;
23517;SDS011;11935;50.878;4.392;2023-03-16T06:25:46;3.20;;;0.90;;
23517;SDS011;11935;50.878;4.392;2023-03-16T06:28:13;5.38;;;1.25;;
23517;SDS011;11935;50.878;4.392;2023-03-16T06:30:39;6.93;;;1.45;;
23517;SDS011;11935;50.878;4.392;2023-03-16T06:33:14;6.47;;;1.40;;
23517;SDS011;11935;50.878;4.392;2023-03-16T06:35:40;3.10;;;1.35;;
23517;SDS011;11935;50.878;4.392;2023-03-16T06:38:06;4.45;;;1.40;;
23517;SDS011;11935;50.878;4.392;2023-03-16T06:40:32;6.10;;;1.00;;
23517;SDS011;11935;50.878;4.392;2023-03-16T06:42:59;2.78;;;0.80;;
23517;SDS011;11935;50.878;4.392;2023-03-16T06:45:26;5.93;;;1.67;;
23517;SDS011;11935;50.878;4.392;2023-03-16T06:47:52;5.32;;;1.40;;
23517;SDS011;11935;50.878;4.392;2023-03-16T06:50:18;1.60;;;1.17;;
23517;SDS011;11935;50.878;4.392;2023-03-16T06:52:45;2.13;;;1.02;;
23517;SDS011;11935;50.878;4.392;2023-03-16T06:55:11;4.68;;;1.30;;
23517;SDS011;11935;50.878;4.392;2023-03-16T06:57:38;3.70;;;1.73;;
23517;SDS011;11935;50.878;4.392;2023-03-16T07:00:06;2.33;;;0.88;;
23517;SDS011;11935;50.878;4.392;2023-03-16T07:02:32;9.75;;;3.25;;
23517;SDS011;11935;50.878;4.392;2023-03-16T07:05:00;6.00;;;2.50;;
23517;SDS011;11935;50.878;4.392;2023-03-16T07:07:26;4.70;;;1.30;;
23517;SDS011;11935;50.878;4.392;2023-03-16T07:09:52;5.05;;;1.80;;
23517;SDS011;11935;50.878;4.392;2023-03-16T07:12:18;4.45;;;1.40;;
23517;SDS011;11935;50.878;4.392;2023-03-16T07:14:44;2.85;;;1.33;;
23517;SDS011;11935;50.878;4.392;2023-03-16T07:17:10;3.83;;;1.80;;
23517;SDS011;11935;50.878;4.392;2023-03-16T07:19:36;3.28;;;1.50;;
23517;SDS011;11935;50.878;4.392;2023-03-16T07:22:02;3.95;;;1.40;;
23517;SDS011;11935;50.878;4.392;2023-03-16T07:24:28;8.98;;;4.57;;
23517;SDS011;11935;50.878;4.392;2023-03-16T07:26:55;5.43;;;1.67;;
23517;SDS011;11935;50.878;4.392;2023-03-16T07:29:21;4.82;;;1.55;;
23517;SDS011;11935;50.878;4.392;2023-03-16T07:31:47;1.98;;;1.10;;
23517;SDS011;11935;50.878;4.392;2023-03-16T07:34:13;4.82;;;1.52;;
23517;SDS011;11935;50.878;4.392;2023-03-16T07:36:40;4.43;;;1.50;;
23517;SDS011;11935;50.878;4.392;2023-03-16T07:39:06;0.68;;;0.47;;
23517;SDS011;11935;50.878;4.392;2023-03-16T07:41:32;3.75;;;1.20;;
23517;SDS011;11935;50.878;4.392;2023-03-16T07:43:58;3.75;;;1.20;;
23517;SDS011;11935;50.878;4.392;2023-03-16T07:46:24;2.47;;;1.10;;
23517;SDS011;11935;50.878;4.392;2023-03-16T07:48:50;8.15;;;1.05;;
23517;SDS011;11935;50.878;4.392;2023-03-16T07:51:16;4.90;;;1.05;;
23517;SDS011;11935;50.878;4.392;2023-03-16T07:53:42;4.75;;;1.25;;
23517;SDS011;11935;50.878;4.392;2023-03-16T07:56:08;7.40;;;1.63;;
23517;SDS011;11935;50.878;4.392;2023-03-16T07:58:36;3.45;;;1.25;;
23517;SDS011;11935;50.878;4.392;2023-03-16T08:01:02;4.65;;;1.58;;
23517;SDS011;11935;50.878;4.392;2023-03-16T08:03:29;3.42;;;1.30;;
23517;SDS011;11935;50.878;4.392;2023-03-16T08:05:56;5.13;;;1.35;;
23517;SDS011;11935;50.878;4.392;2023-03-16T08:08:22;5.90;;;1.40;;
23517;SDS011;11935;50.878;4.392;2023-03-16T08:10:48;5.40;;;1.20;;
23517;SDS011;11935;50.878;4.392;2023-03-16T08:13:16;3.10;;;0.93;;
23517;SDS011;11935;50.878;4.392;2023-03-16T08:15:49;4.28;;;1.40;;
23517;SDS011;11935;50.878;4.392;2023-03-16T08:18:34;3.33;;;1.50;;
23517;SDS011;11935;50.878;4.392;2023-03-16T08:21:01;5.30;;;1.15;;
23517;SDS011;11935;50.878;4.392;2023-03-16T08:23:27;2.50;;;1.20;;
23517;SDS011;11935;50.878;4.392;2023-03-16T08:25:55;3.53;;;1.27;;
23517;SDS011;11935;50.878;4.392;2023-03-16T08:28:21;0.90;;;0.68;;
23517;SDS011;11935;50.878;4.392;2023-03-16T08:30:50;7.22;;;1.30;;
23517;SDS011;11935;50.878;4.392;2023-03-16T08:33:17;4.88;;;1.30;;
23517;SDS011;11935;50.878;4.392;2023-03-16T08:35:44;0.88;;;0.57;;
23517;SDS011;11935;50.878;4.392;2023-03-16T08:38:10;6.00;;;1.10;;
23517;SDS011;11935;50.878;4.392;2023-03-16T08:40:37;3.17;;;0.95;;
23517;SDS011;11935;50.878;4.392;2023-03-16T08:43:06;6.90;;;0.88;;
23517;SDS011;11935;50.878;4.392;2023-03-16T08:45:32;3.72;;;0.80;;
23517;SDS011;11935;50.878;4.392;2023-03-16T08:47:58;3.35;;;1.00;;
23517;SDS011;11935;50.878;4.392;2023-03-16T08:50:25;4.75;;;0.77;;
23517;SDS011;11935;50.878;4.392;2023-03-16T08:52:52;4.05;;;0.90;;
23517;SDS011;11935;50.878;4.392;2023-03-16T08:55:21;6.82;;;0.80;;
23517;SDS011;11935;50.878;4.392;2023-03-16T08:57:48;3.53;;;1.20;;
23517;SDS011;11935;50.878;4.392;2023-03-16T09:00:14;5.15;;;1.10;;
23517;SDS011;11935;50.878;4.392;2023-03-16T09:02:42;3.00;;;1.08;;
23517;SDS011;11935;50.878;4.392;2023-03-16T09:05:09;2.80;;;1.20;;
23517;SDS011;11935;50.878;4.392;2023-03-16T09:07:35;1.13;;;0.70;;
23517;SDS011;11935;50.878;4.392;2023-03-16T09:10:03;4.53;;;0.85;;
23517;SDS011;11935;50.878;4.392;2023-03-16T09:12:31;3.65;;;0.82;;
23517;SDS011;11935;50.878;4.392;2023-03-16T09:14:57;1.92;;;0.82;;
23517;SDS011;11935;50.878;4.392;2023-03-16T09:17:23;4.10;;;1.00;;
23517;SDS011;11935;50.878;4.392;2023-03-16T09:19:49;1.13;;;0.57;;
23517;SDS011;11935;50.878;4.392;2023-03-16T09:22:15;6.22;;;0.98;;
23517;SDS011;11935;50.878;4.392;2023-03-16T09:24:42;1.73;;;0.98;;
23517;SDS011;11935;50.878;4.392;2023-03-16T09:27:08;2.75;;;0.98;;
23517;SDS011;11935;50.878;4.392;2023-03-16T09:29:34;4.88;;;1.05;;
23517;SDS011;11935;50.878;4.392;2023-03-16T09:32:00;2.08;;;0.80;;
23517;SDS011;11935;50.878;4.392;2023-03-16T09:34:28;7.55;;;1.17;;
23517;SDS011;11935;50.878;4.392;2023-03-16T09:36:54;3.53;;;1.10;;
23517;SDS011;11935;50.878;4.392;2023-03-16T09:39:20;3.13;;;1.20;;
23517;SDS011;11935;50.878;4.392;2023-03-16T09:44:22;2.22;;;0.85;;
23517;SDS011;11935;50.878;4.392;2023-03-16T09:46:53;4.07;;;0.82;;
23517;SDS011;11935;50.878;4.392;2023-03-16T09:49:20;5.82;;;0.90;;
23517;SDS011;11935;50.878;4.392;2023-03-16T09:54:40;4.55;;;1.10;;
23517;SDS011;11935;50.878;4.392;2023-03-16T09:57:15;4.50;;;1.15;;
23517;SDS011;11935;50.878;4.392;2023-03-16T09:59:42;3.63;;;1.15;;
23517;SDS011;11935;50.878;4.392;2023-03-16T10:07:24;3.03;;;1.35;;
23517;SDS011;11935;50.878;4.392;2023-03-16T10:09:56;3.40;;;0.70;;
23517;SDS011;11935;50.878;4.392;2023-03-16T10:12:25;1.55;;;0.80;;
23517;SDS011;11935;50.878;4.392;2023-03-16T10:14:55;2.60;;;1.00;;
23517;SDS011;11935;50.878;4.392;2023-03-16T10:17:24;1.85;;;0.98;;
23517;SDS011;11935;50.878;4.392;2023-03-16T10:19:52;2.28;;;0.70;;
23517;SDS011;11935;50.878;4.392;2023-03-16T10:22:24;5.38;;;1.00;;
23517;SDS011;11935;50.878;4.392;2023-03-16T10:27:33;4.03;;;1.10;;
23517;SDS011;11935;50.878;4.392;2023-03-16T10:30:00;2.75;;;0.90;;
23517;SDS011;11935;50.878;4.392;2023-03-16T10:32:29;1.58;;;0.90;;
23517;SDS011;11935;50.878;4.392;2023-03-16T10:34:57;1.60;;;0.63;;
23517;SDS011;11935;50.878;4.392;2023-03-16T10:37:24;1.67;;;0.82;;
23517;SDS011;11935;50.878;4.392;2023-03-16T10:39:52;1.63;;;0.85;;
23517;SDS011;11935;50.878;4.392;2023-03-16T10:42:19;4.63;;;0.80;;
23517;SDS011;11935;50.878;4.392;2023-03-16T10:44:46;3.77;;;1.10;;
23517;SDS011;11935;50.878;4.392;2023-03-16T10:47:22;2.63;;;0.82;;
23517;SDS011;11935;50.878;4.392;2023-03-16T10:49:49;2.13;;;0.90;;
23517;SDS011;11935;50.878;4.392;2023-03-16T10:54:49;4.07;;;0.93;;
23517;SDS011;11935;50.878;4.392;2023-03-16T10:59:46;1.90;;;0.90;;
23517;SDS011;11935;50.878;4.392;2023-03-16T11:02:20;5.13;;;0.80;;
23517;SDS011;11935;50.878;4.392;2023-03-16T11:04:48;2.67;;;1.15;;
23517;SDS011;11935;50.878;4.392;2023-03-16T11:07:15;3.75;;;0.70;;
23517;SDS011;11935;50.878;4.392;2023-03-16T11:09:41;1.15;;;0.65;;
23517;SDS011;11935;50.878;4.392;2023-03-16T11:12:51;1.17;;;0.40;;
23517;SDS011;11935;50.878;4.392;2023-03-16T11:15:09;1.95;;;0.90;;
23517;SDS011;11935;50.878;4.392;2023-03-16T11:17:38;3.83;;;0.75;;
23517;SDS011;11935;50.878;4.392;2023-03-16T11:20:16;2.40;;;0.57;;
23517;SDS011;11935;50.878;4.392;2023-03-16T11:22:44;2.05;;;0.75;;
23517;SDS011;11935;50.878;4.392;2023-03-16T11:25:17;2.30;;;0.77;;
23517;SDS011;11935;50.878;4.392;2023-03-16T11:27:51;1.67;;;0.80;;
23517;SDS011;11935;50.878;4.392;2023-03-16T11:32:51;1.50;;;0.47;;
23517;SDS011;11935;50.878;4.392;2023-03-16T11:40:56;4.80;;;0.90;;
23517;SDS011;11935;50.878;4.392;2023-03-16T11:50:52;0.93;;;0.40;;
23517;SDS011;11935;50.878;4.392;2023-03-16T11:56:08;2.45;;;0.70;;
23517;SDS011;11935;50.878;4.392;2023-03-16T11:58:54;7.57;;;0.75;;
23517;SDS011;11935;50.878;4.392;2023-03-16T12:14:25;5.88;;;0.70;;
23517;SDS011;11935;50.878;4.392;2023-03-16T12:16:53;3.90;;;1.05;;
23517;SDS011;11935;50.878;4.392;2023-03-16T12:22:05;1.95;;;0.50;;
23517;SDS011;11935;50.878;4.392;2023-03-16T12:24:34;4.15;;;0.63;;
23517;SDS011;11935;50.878;4.392;2023-03-16T12:27:01;1.38;;;0.90;;
23517;SDS011;11935;50.878;4.392;2023-03-16T12:29:50;4.03;;;0.90;;
23517;SDS011;11935;50.878;4.392;2023-03-16T12:32:18;2.33;;;0.70;;
23517;SDS011;11935;50.878;4.392;2023-03-16T12:34:54;2.72;;;0.60;;
23517;SDS011;11935;50.878;4.392;2023-03-16T12:37:40;2.55;;;0.57;;
23517;SDS011;11935;50.878;4.392;2023-03-16T12:42:40;4.70;;;0.93;;
23517;SDS011;11935;50.878;4.392;2023-03-16T12:45:16;4.70;;;0.60;;
23517;SDS011;11935;50.878;4.392;2023-03-16T12:50:15;2.30;;;0.68;;
23517;SDS011;11935;50.878;4.392;2023-03-16T12:52:42;1.08;;;0.60;;
23517;SDS011;11935;50.878;4.392;2023-03-16T12:55:12;1.52;;;0.88;;
23517;SDS011;11935;50.878;4.392;2023-03-16T12:57:39;3.50;;;0.60;;
23517;SDS011;11935;50.878;4.392;2023-03-16T13:00:06;3.78;;;0.65;;
23517;SDS011;11935;50.878;4.392;2023-03-16T13:02:34;1.63;;;0.50;;
23517;SDS011;11935;50.878;4.392;2023-03-16T13:07:44;4.13;;;0.73;;
23517;SDS011;11935;50.878;4.392;2023-03-16T13:10:12;2.15;;;0.85;;
23517;SDS011;11935;50.878;4.392;2023-03-16T13:12:38;2.17;;;0.57;;
23517;SDS011;11935;50.878;4.392;2023-03-16T13:15:29;2.15;;;0.65;;
23517;SDS011;11935;50.878;4.392;2023-03-16T13:18:02;1.92;;;0.70;;
23517;SDS011;11935;50.878;4.392;2023-03-16T13:20:52;0.80;;;0.60;;
23517;SDS011;11935;50.878;4.392;2023-03-16T13:26:05;0.77;;;0.50;;
23517;SDS011;11935;50.878;4.392;2023-03-16T13:28:37;1.85;;;0.47;;
23517;SDS011;11935;50.878;4.392;2023-03-16T13:34:05;2.03;;;0.40;;
23517;SDS011;11935;50.878;4.392;2023-03-16T13:36:32;4.25;;;0.60;;
23517;SDS011;11935;50.878;4.392;2023-03-16T13:39:05;1.83;;;0.68;;
23517;SDS011;11935;50.878;4.392;2023-03-16T13:41:31;1.67;;;0.38;;
23517;SDS011;11935;50.878;4.392;2023-03-16T13:43:58;3.95;;;0.60;;
23517;SDS011;11935;50.878;4.392;2023-03-16T13:46:28;1.40;;;0.50;;
23517;SDS011;11935;50.878;4.392;2023-03-16T13:48:56;2.35;;;0.55;;
23517;SDS011;11935;50.878;4.392;2023-03-16T13:51:24;2.53;;;0.80;;
23517;SDS011;11935;50.878;4.392;2023-03-16T13:53:51;4.30;;;0.52;;
23517;SDS011;11935;50.878;4.392;2023-03-16T13:56:21;4.13;;;1.25;;
23517;SDS011;11935;50.878;4.392;2023-03-16T13:58:50;3.33;;;0.70;;
23517;SDS011;11935;50.878;4.392;2023-03-16T14:01:21;0.88;;;0.40;;
23517;SDS011;11935;50.878;4.392;2023-03-16T14:03:49;1.73;;;0.65;;
23517;SDS011;11935;50.878;4.392;2023-03-16T14:06:20;1.98;;;0.52;;
23517;SDS011;11935;50.878;4.392;2023-03-16T14:08:48;2.38;;;0.68;;
23517;SDS011;11935;50.878;4.392;2023-03-16T14:11:16;2.03;;;0.65;;
23517;SDS011;11935;50.878;4.392;2023-03-16T14:13:48;1.58;;;0.52;;
23517;SDS011;11935;50.878;4.392;2023-03-16T14:16:17;2.22;;;0.50;;
23517;SDS011;11935;50.878;4.392;2023-03-16T14:18:48;4.50;;;1.02;;
23517;SDS011;11935;50.878;4.392;2023-03-16T14:21:19;2.95;;;0.80;;
23517;SDS011;11935;50.878;4.392;2023-03-16T14:23:59;2.55;;;0.85;;
23517;SDS011;11935;50.878;4.392;2023-03-16T14:26:26;2.15;;;0.80;;
23517;SDS011;11935;50.878;4.392;2023-03-16T14:29:16;2.13;;;0.70;;
23517;SDS011;11935;50.878;4.392;2023-03-16T14:31:39;8.82;;;1.25;;
23517;SDS011;11935;50.878;4.392;2023-03-16T14:36:49;5.97;;;0.70;;
23517;SDS011;11935;50.878;4.392;2023-03-16T14:39:18;1.23;;;0.65;;
23517;SDS011;11935;50.878;4.392;2023-03-16T14:41:48;1.75;;;0.52;;
23517;SDS011;11935;50.878;4.392;2023-03-16T14:44:17;1.27;;;0.35;;
23517;SDS011;11935;50.878;4.392;2023-03-16T14:46:45;1.92;;;0.55;;
23517;SDS011;11935;50.878;4.392;2023-03-16T14:49:21;3.58;;;0.80;;
23517;SDS011;11935;50.878;4.392;2023-03-16T14:51:49;5.05;;;0.60;;
23517;SDS011;11935;50.878;4.392;2023-03-16T14:54:17;2.35;;;0.50;;
23517;SDS011;11935;50.878;4.392;2023-03-16T14:56:53;0.98;;;0.50;;
23517;SDS011;11935;50.878;4.392;2023-03-16T14:59:19;2.83;;;0.45;;
23517;SDS011;11935;50.878;4.392;2023-03-16T15:01:46;8.75;;;0.93;;
23517;SDS011;11935;50.878;4.392;2023-03-16T15:04:14;0.88;;;0.45;;
23517;SDS011;11935;50.878;4.392;2023-03-16T15:06:40;4.75;;;0.68;;
23517;SDS011;11935;50.878;4.392;2023-03-16T15:09:10;1.45;;;0.82;;
23517;SDS011;11935;50.878;4.392;2023-03-16T15:11:44;2.53;;;0.80;;
23517;SDS011;11935;50.878;4.392;2023-03-16T15:14:11;1.02;;;0.47;;
23517;SDS011;11935;50.878;4.392;2023-03-16T15:17:00;2.83;;;0.60;;
23517;SDS011;11935;50.878;4.392;2023-03-16T15:19:26;1.38;;;0.80;;
23517;SDS011;11935;50.878;4.392;2023-03-16T15:21:52;1.27;;;0.85;;
23517;SDS011;11935;50.878;4.392;2023-03-16T15:24:19;1.25;;;0.70;;
23517;SDS011;11935;50.878;4.392;2023-03-16T15:26:45;2.95;;;0.70;;
23517;SDS011;11935;50.878;4.392;2023-03-16T15:29:11;1.88;;;0.73;;
23517;SDS011;11935;50.878;4.392;2023-03-16T15:31:37;2.45;;;0.80;;
23517;SDS011;11935;50.878;4.392;2023-03-16T15:34:03;2.72;;;0.50;;
23517;SDS011;11935;50.878;4.392;2023-03-16T15:36:30;1.45;;;0.80;;
23517;SDS011;11935;50.878;4.392;2023-03-16T15:38:56;2.15;;;0.70;;
23517;SDS011;11935;50.878;4.392;2023-03-16T15:41:22;1.55;;;0.80;;
23517;SDS011;11935;50.878;4.392;2023-03-16T15:43:50;3.47;;;0.65;;
23517;SDS011;11935;50.878;4.392;2023-03-16T15:46:16;1.23;;;0.60;;
23517;SDS011;11935;50.878;4.392;2023-03-16T15:48:42;2.30;;;0.70;;
23517;SDS011;11935;50.878;4.392;2023-03-16T15:51:15;5.55;;;0.82;;
23517;SDS011;11935;50.878;4.392;2023-03-16T15:53:44;1.58;;;0.63;;
23517;SDS011;11935;50.878;4.392;2023-03-16T15:56:14;2.03;;;0.60;;
23517;SDS011;11935;50.878;4.392;2023-03-16T15:58:42;1.88;;;0.75;;
23517;SDS011;11935;50.878;4.392;2023-03-16T16:01:19;1.40;;;0.80;;
23517;SDS011;11935;50.878;4.392;2023-03-16T16:03:46;5.50;;;1.75;;
23517;SDS011;11935;50.878;4.392;2023-03-16T16:06:12;2.00;;;0.80;;
23517;SDS011;11935;50.878;4.392;2023-03-16T16:08:39;1.65;;;0.82;;
23517;SDS011;11935;50.878;4.392;2023-03-16T16:11:09;1.85;;;0.55;;
23517;SDS011;11935;50.878;4.392;2023-03-16T16:13:37;3.45;;;0.90;;